Time;durP1;ratioP1;P1;durP2;ratioP2;P2;SDS_P1;SDS_P2;PMS_P1;PMS_P2;Temp;Humidity;BMP_temperature;BMP_pressure;BME280_temperature;BME280_humidity;BME280_pressure;Samples;Min_cycle;Max_cycle;Signal;HPM_P1;HPM_P2
2021/08/16 00:02:19;;;;;;;6.93;3.70;;;;;;;;;;5039853;28;20432;-72
2021/08/16 00:04:45;;;;;;;6.07;4.03;;;;;;;;;;5043635;28;20446;-74
2021/08/16 00:07:11;;;;;;;4.67;3.40;;;;;;;;;;5036982;28;20933;-74
2021/08/16 00:09:37;;;;;;;5.37;3.60;;;;;;;;;;5037871;28;20424;-74
2021/08/16 00:12:03;;;;;;;5.00;3.57;;;;;;;;;;5037212;28;20908;-75
2021/08/16 00:14:30;;;;;;;5.40;3.90;;;;;;;;;;5036654;28;20441;-73
2021/08/16 00:16:56;;;;;;;5.73;4.00;;;;;;;;;;5036176;28;20965;-74
2021/08/16 00:19:22;;;;;;;6.90;4.60;;;;;;;;;;5037861;28;20449;-74
2021/08/16 00:21:48;;;;;;;5.27;4.00;;;;;;;;;;5050123;28;20408;-73
2021/08/16 00:24:14;;;;;;;5.63;4.50;;;;;;;;;;5037259;28;20436;-73
2021/08/16 00:26:40;;;;;;;5.40;4.10;;;;;;;;;;5050041;28;20412;-76
2021/08/16 00:29:06;;;;;;;6.70;4.90;;;;;;;;;;5037228;28;20412;-75
2021/08/16 00:31:32;;;;;;;6.63;4.30;;;;;;;;;;5036903;28;20412;-75
2021/08/16 00:33:58;;;;;;;5.50;4.23;;;;;;;;;;5037162;28;20416;-72
2021/08/16 00:36:25;;;;;;;7.20;4.20;;;;;;;;;;5036713;28;20464;-75
2021/08/16 00:38:51;;;;;;;8.40;5.07;;;;;;;;;;5036083;28;20416;-74
2021/08/16 00:41:18;;;;;;;7.03;4.17;;;;;;;;;;5036746;28;20419;-75
2021/08/16 00:43:44;;;;;;;4.37;3.77;;;;;;;;;;5036419;28;20416;-74
2021/08/16 00:46:11;;;;;;;5.27;3.73;;;;;;;;;;5036127;28;20835;-73
2021/08/16 00:48:37;;;;;;;7.80;4.10;;;;;;;;;;5036000;28;20419;-75
2021/08/16 00:51:03;;;;;;;5.93;3.97;;;;;;;;;;5036110;28;20790;-75
2021/08/16 00:53:29;;;;;;;5.93;3.70;;;;;;;;;;5036066;28;20444;-76
2021/08/16 00:55:55;;;;;;;7.90;4.53;;;;;;;;;;5035832;28;20514;-76
2021/08/16 00:58:22;;;;;;;5.13;4.50;;;;;;;;;;5035599;28;20901;-74
2021/08/16 01:00:49;;;;;;;6.37;4.37;;;;;;;;;;5035998;28;20405;-74
2021/08/16 01:03:15;;;;;;;6.03;4.10;;;;;;;;;;5041401;28;20768;-74
2021/08/16 01:05:41;;;;;;;4.83;3.57;;;;;;;;;;5036865;28;20463;-75
2021/08/16 01:08:07;;;;;;;4.90;3.77;;;;;;;;;;5035517;28;20844;-74
2021/08/16 01:10:34;;;;;;;7.03;4.37;;;;;;;;;;5035672;28;20908;-74
2021/08/16 01:13:00;;;;;;;4.07;3.50;;;;;;;;;;5035613;28;20413;-76
2021/08/16 01:15:28;;;;;;;7.50;5.00;;;;;;;;;;5048031;28;20463;-74
2021/08/16 01:17:54;;;;;;;5.50;4.20;;;;;;;;;;5035290;28;20413;-74
2021/08/16 01:20:20;;;;;;;6.97;4.47;;;;;;;;;;5035587;28;20421;-73
2021/08/16 01:22:47;;;;;;;4.47;3.77;;;;;;;;;;5035654;28;20412;-74
2021/08/16 01:25:13;;;;;;;6.63;5.10;;;;;;;;;;5041821;28;20447;-73
2021/08/16 01:27:39;;;;;;;7.80;5.07;;;;;;;;;;5042358;28;20416;-74
2021/08/16 01:30:10;;;;;;;5.57;4.83;;;;;;;;;;5035368;28;20817;-74
2021/08/16 01:32:36;;;;;;;7.30;5.20;;;;;;;;;;5035518;28;20846;-74
2021/08/16 01:35:03;;;;;;;4.93;4.33;;;;;;;;;;5035420;28;20433;-72
2021/08/16 01:37:29;;;;;;;5.60;4.43;;;;;;;;;;5034859;28;20426;-72
2021/08/16 01:39:55;;;;;;;7.37;5.03;;;;;;;;;;5035594;28;20769;-74
2021/08/16 01:42:21;;;;;;;7.17;5.30;;;;;;;;;;5049114;28;20418;-71
2021/08/16 01:44:47;;;;;;;7.70;5.10;;;;;;;;;;5055255;28;20434;-73
2021/08/16 01:47:13;;;;;;;8.13;5.37;;;;;;;;;;5054995;28;20419;-74
2021/08/16 01:49:39;;;;;;;6.73;5.33;;;;;;;;;;5055420;28;20419;-73
2021/08/16 01:52:05;;;;;;;7.70;5.00;;;;;;;;;;5040983;28;20511;-75
2021/08/16 01:54:33;;;;;;;8.03;5.00;;;;;;;;;;5034813;28;20920;-74
2021/08/16 01:56:59;;;;;;;6.07;5.00;;;;;;;;;;5033483;28;20472;-76
2021/08/16 01:59:25;;;;;;;8.17;5.70;;;;;;;;;;5034809;28;20920;-74
2021/08/16 02:01:51;;;;;;;5.83;4.73;;;;;;;;;;5034557;28;20412;-75
2021/08/16 02:04:17;;;;;;;6.07;5.40;;;;;;;;;;5034808;28;20437;-73
2021/08/16 02:06:43;;;;;;;7.97;4.93;;;;;;;;;;5034585;28;20435;-73
2021/08/16 02:09:09;;;;;;;7.93;5.77;;;;;;;;;;5034792;28;20923;-72
2021/08/16 02:11:35;;;;;;;10.03;5.17;;;;;;;;;;5034489;28;20474;-72
2021/08/16 02:14:01;;;;;;;8.60;5.73;;;;;;;;;;5034256;28;20933;-74
2021/08/16 02:16:27;;;;;;;9.20;5.23;;;;;;;;;;5034476;28;20850;-75
2021/08/16 02:18:53;;;;;;;6.40;5.13;;;;;;;;;;5034017;28;20424;-73
2021/08/16 02:21:19;;;;;;;7.47;5.20;;;;;;;;;;5034505;28;20467;-73
2021/08/16 02:23:45;;;;;;;9.00;5.50;;;;;;;;;;5033747;28;20416;-73
2021/08/16 02:26:11;;;;;;;7.37;5.73;;;;;;;;;;5034142;28;20429;-74
2021/08/16 02:28:37;;;;;;;8.00;5.80;;;;;;;;;;5033957;28;20743;-74
2021/08/16 02:31:03;;;;;;;7.03;5.33;;;;;;;;;;5034009;28;20420;-74
2021/08/16 02:33:29;;;;;;;8.00;6.60;;;;;;;;;;5033087;28;20952;-73
2021/08/16 02:35:56;;;;;;;8.70;6.20;;;;;;;;;;5033742;28;20464;-73
2021/08/16 02:38:22;;;;;;;12.40;6.10;;;;;;;;;;5033581;28;20504;-72
2021/08/16 02:40:47;;;;;;;11.07;7.40;;;;;;;;;;5034346;28;20483;-75
2021/08/16 02:43:13;;;;;;;9.10;7.20;;;;;;;;;;5034092;28;20495;-71
2021/08/16 02:45:39;;;;;;;9.00;6.27;;;;;;;;;;5033799;28;20436;-72
2021/08/16 02:48:06;;;;;;;7.93;6.17;;;;;;;;;;5033362;28;20427;-72
2021/08/16 02:50:32;;;;;;;8.10;6.80;;;;;;;;;;5033665;28;20415;-71
2021/08/16 02:52:58;;;;;;;9.97;6.30;;;;;;;;;;5033618;28;20416;-74
2021/08/16 02:55:24;;;;;;;8.47;6.90;;;;;;;;;;5033774;28;20467;-73
2021/08/16 02:57:50;;;;;;;7.33;6.50;;;;;;;;;;5040671;28;20466;-73
2021/08/16 03:00:16;;;;;;;10.67;6.67;;;;;;;;;;5033478;28;20440;-76
2021/08/16 03:02:43;;;;;;;8.97;6.17;;;;;;;;;;5033981;28;20415;-73
2021/08/16 03:05:10;;;;;;;9.70;6.20;;;;;;;;;;5033457;28;20444;-74
2021/08/16 03:07:36;;;;;;;8.33;7.03;;;;;;;;;;5033007;28;20416;-75
2021/08/16 03:10:02;;;;;;;10.53;7.00;;;;;;;;;;5032095;28;20508;-72
2021/08/16 03:12:28;;;;;;;9.83;7.30;;;;;;;;;;5033589;28;20420;-73
2021/08/16 03:14:54;;;;;;;9.47;8.10;;;;;;;;;;5033224;28;20501;-73
2021/08/16 03:17:20;;;;;;;8.80;7.00;;;;;;;;;;5033021;28;20498;-72
2021/08/16 03:19:46;;;;;;;7.90;7.20;;;;;;;;;;5033213;28;20423;-75
2021/08/16 03:22:12;;;;;;;12.60;7.77;;;;;;;;;;5033358;28;20421;-74
2021/08/16 03:24:38;;;;;;;7.80;6.40;;;;;;;;;;5033132;28;20440;-72
2021/08/16 03:27:04;;;;;;;6.87;6.17;;;;;;;;;;5033061;28;20479;-74
2021/08/16 03:29:30;;;;;;;9.20;6.80;;;;;;;;;;5032933;28;20454;-75
2021/08/16 03:32:00;;;;;;;7.43;6.33;;;;;;;;;;5033101;28;20412;-74
2021/08/16 03:34:26;;;;;;;9.23;7.00;;;;;;;;;;5032194;28;20429;-73
2021/08/16 03:36:52;;;;;;;8.80;6.90;;;;;;;;;;5032508;28;20953;-74
2021/08/16 03:39:19;;;;;;;6.70;5.77;;;;;;;;;;5033051;28;20466;-74
2021/08/16 03:41:45;;;;;;;6.87;5.27;;;;;;;;;;5033262;28;20422;-75
2021/08/16 03:44:11;;;;;;;8.00;6.23;;;;;;;;;;5032863;28;20421;-73
2021/08/16 03:46:37;;;;;;;8.37;6.53;;;;;;;;;;5032557;28;20420;-74
2021/08/16 03:49:03;;;;;;;8.83;6.43;;;;;;;;;;5032799;28;20428;-74
2021/08/16 03:51:29;;;;;;;10.30;6.53;;;;;;;;;;5033469;28;20424;-73
2021/08/16 03:53:55;;;;;;;7.00;5.23;;;;;;;;;;5032847;28;20428;-73
2021/08/16 03:56:21;;;;;;;9.43;6.50;;;;;;;;;;5032913;28;20510;-74
2021/08/16 03:58:47;;;;;;;8.10;6.20;;;;;;;;;;5045313;28;20449;-74
2021/08/16 04:01:13;;;;;;;7.80;6.23;;;;;;;;;;5033045;28;20442;-72
2021/08/16 04:03:41;;;;;;;7.87;6.20;;;;;;;;;;5033103;28;20447;-73
2021/08/16 04:06:07;;;;;;;9.23;5.83;;;;;;;;;;5032997;28;20506;-73
2021/08/16 04:08:33;;;;;;;7.77;6.50;;;;;;;;;;5032476;28;20515;-75
2021/08/16 04:10:59;;;;;;;8.80;6.63;;;;;;;;;;5032877;28;20413;-72
2021/08/16 04:13:26;;;;;;;7.60;6.90;;;;;;;;;;5032806;28;20422;-73
2021/08/16 04:15:52;;;;;;;6.93;6.20;;;;;;;;;;5032626;28;20471;-75
2021/08/16 04:18:18;;;;;;;8.10;6.70;;;;;;;;;;5032175;28;20409;-74
2021/08/16 04:20:44;;;;;;;13.17;8.07;;;;;;;;;;5032938;28;20467;-75
2021/08/16 04:23:10;;;;;;;9.63;8.40;;;;;;;;;;5032773;28;20427;-73
2021/08/16 04:25:36;;;;;;;10.80;8.37;;;;;;;;;;5032927;28;20909;-75
2021/08/16 04:28:02;;;;;;;10.13;7.77;;;;;;;;;;5032747;28;20409;-76
2021/08/16 04:30:28;;;;;;;12.27;8.80;;;;;;;;;;5032809;28;20420;-74
2021/08/16 04:32:54;;;;;;;12.60;8.40;;;;;;;;;;5032540;28;20419;-74
2021/08/16 04:35:20;;;;;;;17.43;9.17;;;;;;;;;;5032483;28;20456;-73
2021/08/16 04:37:46;;;;;;;9.77;8.37;;;;;;;;;;5032384;28;20417;-73
2021/08/16 04:40:13;;;;;;;9.83;8.60;;;;;;;;;;5033086;28;20420;-73
2021/08/16 04:42:39;;;;;;;12.97;8.53;;;;;;;;;;5032300;28;20416;-73
2021/08/16 04:45:06;;;;;;;14.33;8.63;;;;;;;;;;5032251;28;20587;-75
2021/08/16 04:47:32;;;;;;;13.27;8.70;;;;;;;;;;5034894;28;20415;-74
2021/08/16 04:49:58;;;;;;;11.73;8.67;;;;;;;;;;5036205;28;20431;-74
2021/08/16 04:52:25;;;;;;;14.87;9.60;;;;;;;;;;5035898;28;20417;-75
2021/08/16 04:54:51;;;;;;;13.37;8.97;;;;;;;;;;5035904;28;20834;-72
2021/08/16 04:57:47;;;;;;;13.60;10.57;;;;;;;;;;5035379;28;20500;-73
2021/08/16 05:00:14;;;;;;;11.90;8.80;;;;;;;;;;5031888;28;20428;-76
2021/08/16 05:02:40;;;;;;;16.23;11.47;;;;;;;;;;5035955;28;20409;-73
2021/08/16 05:05:11;;;;;;;13.87;9.83;;;;;;;;;;5035531;28;20448;-73
2021/08/16 05:07:37;;;;;;;14.20;9.90;;;;;;;;;;5035487;28;20479;-75
2021/08/16 05:10:06;;;;;;;12.37;9.90;;;;;;;;;;5035657;28;20413;-74
2021/08/16 05:12:32;;;;;;;13.60;10.37;;;;;;;;;;5035763;28;20405;-74
2021/08/16 05:14:58;;;;;;;12.20;10.67;;;;;;;;;;5035047;28;20519;-75
2021/08/16 05:17:25;;;;;;;17.93;10.57;;;;;;;;;;5035150;28;20468;-75
2021/08/16 05:19:51;;;;;;;14.80;10.63;;;;;;;;;;5035403;28;20412;-73
2021/08/16 05:22:17;;;;;;;15.57;10.90;;;;;;;;;;5034352;28;20437;-73
2021/08/16 05:24:43;;;;;;;14.70;10.90;;;;;;;;;;5036273;28;20428;-73
2021/08/16 05:27:09;;;;;;;14.50;11.37;;;;;;;;;;5035052;28;20471;-73
2021/08/16 05:29:36;;;;;;;18.20;12.10;;;;;;;;;;5035281;28;20417;-74
2021/08/16 05:32:02;;;;;;;17.10;10.90;;;;;;;;;;5026451;28;20422;-74
2021/08/16 05:34:28;;;;;;;18.07;11.77;;;;;;;;;;5030983;28;20441;-76
2021/08/16 05:36:54;;;;;;;14.33;10.73;;;;;;;;;;5034753;28;20463;-75
2021/08/16 05:39:20;;;;;;;14.97;11.47;;;;;;;;;;5036996;28;20500;-73
2021/08/16 05:41:46;;;;;;;15.20;12.10;;;;;;;;;;5046458;28;20409;-74
2021/08/16 05:44:12;;;;;;;15.80;11.23;;;;;;;;;;5034954;28;20416;-73
2021/08/16 05:46:38;;;;;;;15.90;11.70;;;;;;;;;;5034727;28;20413;-74
2021/08/16 05:49:05;;;;;;;16.53;11.57;;;;;;;;;;5035301;28;20421;-76
2021/08/16 05:51:31;;;;;;;13.00;11.10;;;;;;;;;;5034688;28;20424;-75
2021/08/16 05:53:57;;;;;;;19.30;12.37;;;;;;;;;;5035039;28;20421;-75
2021/08/16 05:56:23;;;;;;;16.63;12.87;;;;;;;;;;5026106;28;20821;-74
2021/08/16 05:58:49;;;;;;;13.77;11.20;;;;;;;;;;5026204;28;20948;-73
2021/08/16 06:01:15;;;;;;;23.27;12.60;;;;;;;;;;5027905;28;20467;-73
2021/08/16 06:03:41;;;;;;;16.30;11.50;;;;;;;;;;5030802;28;20422;-75
2021/08/16 06:06:07;;;;;;;15.60;12.23;;;;;;;;;;5030779;28;20466;-72
2021/08/16 06:08:33;;;;;;;15.40;11.87;;;;;;;;;;5030499;28;20424;-74
2021/08/16 06:10:59;;;;;;;13.83;11.87;;;;;;;;;;5030857;28;20797;-76
2021/08/16 06:13:25;;;;;;;14.00;11.40;;;;;;;;;;5031214;28;20526;-74
2021/08/16 06:15:51;;;;;;;16.40;12.23;;;;;;;;;;5030592;28;20464;-74
2021/08/16 06:18:17;;;;;;;15.80;12.60;;;;;;;;;;5030219;28;20432;-77
2021/08/16 06:20:43;;;;;;;20.50;12.87;;;;;;;;;;5030738;28;20889;-76
2021/08/16 06:23:09;;;;;;;16.57;11.97;;;;;;;;;;5030672;28;20416;-75
2021/08/16 06:25:35;;;;;;;14.87;12.50;;;;;;;;;;5030597;28;20884;-76
2021/08/16 06:28:01;;;;;;;16.93;12.43;;;;;;;;;;5030219;28;20838;-74
2021/08/16 06:30:27;;;;;;;13.27;11.77;;;;;;;;;;5030487;28;20451;-73
2021/08/16 06:32:53;;;;;;;19.60;12.23;;;;;;;;;;5017374;28;20429;-75
2021/08/16 06:35:19;;;;;;;15.07;11.87;;;;;;;;;;5030434;28;20440;-75
2021/08/16 06:37:46;;;;;;;17.90;11.70;;;;;;;;;;5030070;28;20428;-73
2021/08/16 06:40:13;;;;;;;13.37;10.77;;;;;;;;;;5030273;28;20433;-74
2021/08/16 06:42:39;;;;;;;14.27;11.20;;;;;;;;;;5030036;28;20413;-73
2021/08/16 06:45:06;;;;;;;17.27;10.37;;;;;;;;;;5030179;28;20443;-74
2021/08/16 06:47:32;;;;;;;16.97;11.60;;;;;;;;;;5029734;28;20421;-74
2021/08/16 06:49:59;;;;;;;12.33;10.10;;;;;;;;;;5030151;28;20416;-73
2021/08/16 06:52:25;;;;;;;14.07;9.93;;;;;;;;;;5030227;28;20413;-72
2021/08/16 06:54:51;;;;;;;13.03;10.80;;;;;;;;;;5029803;28;20448;-74
2021/08/16 06:57:17;;;;;;;15.20;10.60;;;;;;;;;;5029508;28;20565;-73
2021/08/16 06:59:43;;;;;;;18.10;10.60;;;;;;;;;;5029993;28;20444;-74
2021/08/16 07:02:09;;;;;;;15.07;11.00;;;;;;;;;;5029727;28;20475;-74
2021/08/16 07:04:36;;;;;;;15.73;10.97;;;;;;;;;;5029723;28;20522;-75
2021/08/16 07:07:02;;;;;;;16.93;12.27;;;;;;;;;;5029119;28;20436;-74
2021/08/16 07:09:28;;;;;;;13.23;11.00;;;;;;;;;;5029926;28;20430;-75
2021/08/16 07:11:56;;;;;;;12.40;11.03;;;;;;;;;;5029378;28;20416;-75
2021/08/16 07:14:22;;;;;;;16.50;10.77;;;;;;;;;;5029734;28;20467;-73
2021/08/16 07:16:48;;;;;;;15.97;10.70;;;;;;;;;;5029140;28;20516;-73
2021/08/16 07:19:14;;;;;;;13.80;10.80;;;;;;;;;;5029479;28;20435;-73
2021/08/16 07:21:40;;;;;;;13.37;11.27;;;;;;;;;;5029216;28;20913;-75
2021/08/16 07:24:06;;;;;;;17.37;10.43;;;;;;;;;;5028015;28;20975;-74
2021/08/16 07:26:32;;;;;;;14.97;11.07;;;;;;;;;;5029255;28;20847;-73
2021/08/16 07:28:58;;;;;;;14.27;9.47;;;;;;;;;;5029426;28;20944;-74
2021/08/16 07:31:24;;;;;;;11.93;10.40;;;;;;;;;;5025577;28;20787;-75
2021/08/16 07:33:51;;;;;;;14.80;10.53;;;;;;;;;;5020502;28;20911;-76
2021/08/16 07:36:17;;;;;;;14.13;10.57;;;;;;;;;;5042097;28;20559;-76
2021/08/16 07:38:43;;;;;;;17.17;11.20;;;;;;;;;;5029219;28;20488;-73
2021/08/16 07:41:09;;;;;;;12.87;10.23;;;;;;;;;;5029345;28;20466;-74
2021/08/16 07:43:35;;;;;;;12.93;9.90;;;;;;;;;;5029400;28;20502;-73
2021/08/16 07:46:03;;;;;;;21.03;12.77;;;;;;;;;;5029222;28;20432;-75
2021/08/16 07:48:29;;;;;;;13.50;12.20;;;;;;;;;;5028880;28;20420;-75
2021/08/16 07:50:55;;;;;;;16.17;10.03;;;;;;;;;;5029379;28;20448;-74
2021/08/16 07:53:21;;;;;;;15.43;11.27;;;;;;;;;;5029325;28;20420;-75
2021/08/16 07:55:47;;;;;;;16.10;10.47;;;;;;;;;;5028983;28;20464;-73
2021/08/16 07:58:13;;;;;;;16.97;11.03;;;;;;;;;;5028779;28;20416;-75
2021/08/16 08:00:39;;;;;;;11.53;9.57;;;;;;;;;;5029045;28;20423;-73
2021/08/16 08:03:05;;;;;;;13.00;10.73;;;;;;;;;;5029095;28;20421;-75
2021/08/16 08:05:31;;;;;;;12.40;10.37;;;;;;;;;;5028922;28;20506;-76
2021/08/16 08:07:57;;;;;;;14.60;10.80;;;;;;;;;;5028847;28;20420;-73
2021/08/16 08:10:23;;;;;;;13.83;10.80;;;;;;;;;;5029310;28;20515;-75
2021/08/16 08:12:49;;;;;;;13.27;11.80;;;;;;;;;;5027946;28;20519;-74
2021/08/16 08:15:16;;;;;;;12.50;10.57;;;;;;;;;;5028853;28;20440;-74
2021/08/16 08:17:42;;;;;;;14.73;10.43;;;;;;;;;;5028790;28;20411;-73
2021/08/16 08:20:08;;;;;;;15.10;10.80;;;;;;;;;;5030088;28;20428;-73
2021/08/16 08:22:34;;;;;;;14.57;9.80;;;;;;;;;;5032284;28;20495;-75
2021/08/16 08:25:01;;;;;;;13.70;11.23;;;;;;;;;;5033303;28;20468;-76
2021/08/16 08:27:27;;;;;;;13.20;10.07;;;;;;;;;;5043935;28;20412;-75
2021/08/16 08:29:53;;;;;;;13.00;9.63;;;;;;;;;;5034467;28;20424;-75
2021/08/16 08:32:19;;;;;;;10.10;9.07;;;;;;;;;;5032646;28;20502;-75
2021/08/16 08:34:45;;;;;;;9.77;8.73;;;;;;;;;;5030896;28;20452;-76
2021/08/16 08:37:13;;;;;;;14.50;8.23;;;;;;;;;;5032153;28;20829;-74
2021/08/16 08:39:43;;;;;;;12.77;10.53;;;;;;;;;;5032644;28;20417;-74
2021/08/16 08:42:12;;;;;;;12.37;7.93;;;;;;;;;;5032589;28;20531;-73
2021/08/16 08:44:39;;;;;;;9.63;8.13;;;;;;;;;;5032065;28;20453;-74
2021/08/16 08:47:05;;;;;;;11.00;9.37;;;;;;;;;;5032117;28;20777;-73
2021/08/16 08:49:32;;;;;;;11.97;8.17;;;;;;;;;;5032081;28;20413;-73
2021/08/16 08:51:58;;;;;;;12.53;8.23;;;;;;;;;;5038453;28;20428;-75
2021/08/16 08:54:26;;;;;;;11.40;8.80;;;;;;;;;;5032239;28;20444;-75
2021/08/16 08:56:52;;;;;;;13.53;10.47;;;;;;;;;;5031634;28;20468;-75
2021/08/16 08:59:18;;;;;;;11.43;9.27;;;;;;;;;;5032212;28;20408;-73
2021/08/16 09:01:54;;;;;;;13.93;9.63;;;;;;;;;;5032164;28;20539;-76
2021/08/16 09:04:21;;;;;;;12.27;9.33;;;;;;;;;;5032117;28;20805;-76
2021/08/16 09:06:47;;;;;;;15.93;8.57;;;;;;;;;;5031594;28;20912;-76
2021/08/16 09:09:13;;;;;;;12.90;8.90;;;;;;;;;;5032081;28;20422;-74
2021/08/16 09:11:43;;;;;;;10.83;9.13;;;;;;;;;;5032003;28;20478;-74
2021/08/16 09:14:09;;;;;;;13.60;9.77;;;;;;;;;;5031590;28;20427;-74
2021/08/16 09:16:37;;;;;;;16.77;10.10;;;;;;;;;;5031274;28;20468;-72
2021/08/16 09:19:16;;;;;;;19.80;11.37;;;;;;;;;;5031733;28;20599;-73
2021/08/16 09:22:00;;;;;;;14.90;12.70;;;;;;;;;;5031792;28;20439;-70
2021/08/16 09:24:28;;;;;;;22.20;12.80;;;;;;;;;;5031249;28;20565;-71
2021/08/16 09:27:01;;;;;;;15.70;12.70;;;;;;;;;;5031351;28;21050;-72
2021/08/16 09:29:28;;;;;;;21.13;14.77;;;;;;;;;;5022217;28;20424;-70
2021/08/16 09:32:03;;;;;;;19.27;13.50;;;;;;;;;;5031173;28;20486;-71
2021/08/16 09:34:42;;;;;;;22.43;15.13;;;;;;;;;;5030837;28;20804;-71
2021/08/16 09:37:25;;;;;;;22.10;15.23;;;;;;;;;;5030933;28;21295;-73
2021/08/16 09:40:17;;;;;;;22.73;14.30;;;;;;;;;;5031563;28;20417;-73
2021/08/16 09:42:45;;;;;;;23.50;13.50;;;;;;;;;;5030303;28;20964;-72
2021/08/16 09:45:38;;;;;;;17.57;13.07;;;;;;;;;;5031106;28;20440;-71
2021/08/16 09:48:06;;;;;;;19.93;13.77;;;;;;;;;;5030164;28;20528;-71
2021/08/16 09:50:46;;;;;;;17.43;13.10;;;;;;;;;;5021187;28;20411;-73
2021/08/16 09:53:15;;;;;;;23.07;14.33;;;;;;;;;;5031082;28;20565;-72
2021/08/16 09:55:42;;;;;;;21.37;14.80;;;;;;;;;;5031018;28;20467;-71
2021/08/16 09:58:09;;;;;;;22.30;13.47;;;;;;;;;;5031152;28;20455;-72
2021/08/16 10:00:37;;;;;;;19.37;12.80;;;;;;;;;;5031047;28;21127;-72
2021/08/16 10:03:04;;;;;;;23.30;13.57;;;;;;;;;;5031016;28;20427;-71
2021/08/16 10:05:31;;;;;;;17.33;11.80;;;;;;;;;;5030810;28;20552;-70
2021/08/16 10:08:00;;;;;;;13.90;10.90;;;;;;;;;;5030722;28;20417;-71
2021/08/16 10:10:27;;;;;;;12.57;10.20;;;;;;;;;;5030882;28;20419;-71
2021/08/16 10:12:53;;;;;;;12.27;9.80;;;;;;;;;;5030750;28;20427;-71
2021/08/16 10:15:19;;;;;;;13.87;9.37;;;;;;;;;;5030525;28;20469;-70
2021/08/16 10:17:45;;;;;;;10.30;9.30;;;;;;;;;;5030539;28;20424;-70
2021/08/16 10:20:12;;;;;;;12.37;10.23;;;;;;;;;;5030587;28;20419;-70
2021/08/16 10:22:38;;;;;;;15.33;8.97;;;;;;;;;;5030615;28;20435;-70
2021/08/16 10:25:08;;;;;;;13.70;9.03;;;;;;;;;;5030317;28;20431;-71
2021/08/16 10:27:34;;;;;;;10.57;8.53;;;;;;;;;;5030207;28;20573;-71
2021/08/16 10:30:18;;;;;;;11.37;8.37;;;;;;;;;;5030354;28;21016;-71
2021/08/16 10:32:44;;;;;;;11.33;8.87;;;;;;;;;;5025364;28;20423;-72
2021/08/16 10:35:13;;;;;;;13.27;9.07;;;;;;;;;;5030166;28;20440;-71
2021/08/16 10:37:40;;;;;;;11.23;9.10;;;;;;;;;;5029849;28;20429;-70
2021/08/16 10:40:17;;;;;;;8.73;7.63;;;;;;;;;;5030071;28;20992;-71
2021/08/16 10:42:43;;;;;;;8.87;7.97;;;;;;;;;;5030216;28;20407;-71
2021/08/16 10:45:09;;;;;;;13.20;7.13;;;;;;;;;;5028345;28;20451;-71
2021/08/16 10:47:36;;;;;;;9.60;6.80;;;;;;;;;;5029869;28;21107;-71
2021/08/16 10:50:20;;;;;;;11.83;7.17;;;;;;;;;;5031225;28;20410;-71
2021/08/16 10:52:48;;;;;;;9.80;6.03;;;;;;;;;;5030001;28;20415;-71
2021/08/16 10:55:15;;;;;;;10.27;7.07;;;;;;;;;;5029734;28;20439;-70
2021/08/16 10:57:41;;;;;;;7.03;5.90;;;;;;;;;;5028345;28;20428;-72
2021/08/16 11:00:08;;;;;;;7.77;5.90;;;;;;;;;;5029525;28;20430;-71
2021/08/16 11:02:36;;;;;;;7.73;5.70;;;;;;;;;;5029855;28;20410;-70
2021/08/16 11:05:02;;;;;;;7.40;5.17;;;;;;;;;;5029644;28;20888;-70
2021/08/16 11:07:28;;;;;;;8.40;5.30;;;;;;;;;;5029455;28;20503;-70
2021/08/16 11:09:56;;;;;;;10.13;5.30;;;;;;;;;;5029838;28;20504;-70
2021/08/16 11:12:30;;;;;;;11.17;5.50;;;;;;;;;;5028545;28;20443;-70
2021/08/16 11:14:56;;;;;;;4.60;4.20;;;;;;;;;;5029424;28;20461;-71
2021/08/16 11:17:29;;;;;;;4.30;3.70;;;;;;;;;;5029053;28;20471;-70
2021/08/16 11:19:57;;;;;;;4.10;3.20;;;;;;;;;;5029600;28;20465;-71
2021/08/16 11:22:23;;;;;;;5.20;3.83;;;;;;;;;;5029622;28;20414;-71
2021/08/16 11:24:49;;;;;;;4.00;3.53;;;;;;;;;;5029237;28;20441;-71
2021/08/16 11:27:20;;;;;;;7.90;3.70;;;;;;;;;;5029150;28;20901;-71
2021/08/16 11:29:55;;;;;;;5.77;4.10;;;;;;;;;;5029216;28;20418;-70
2021/08/16 11:32:23;;;;;;;7.33;3.47;;;;;;;;;;5029509;28;20488;-70
2021/08/16 11:34:56;;;;;;;4.43;3.83;;;;;;;;;;5029171;28;20446;-70
2021/08/16 11:37:23;;;;;;;6.40;5.00;;;;;;;;;;5027636;28;20497;-71
2021/08/16 11:39:50;;;;;;;5.90;4.63;;;;;;;;;;5029361;28;20446;-71
2021/08/16 11:42:18;;;;;;;7.60;4.70;;;;;;;;;;5029345;28;20445;-71
2021/08/16 11:44:43;;;;;;;5.30;4.80;;;;;;;;;;5019144;28;20436;-71
2021/08/16 11:47:09;;;;;;;5.57;4.90;;;;;;;;;;5028984;28;20440;-71
2021/08/16 11:49:37;;;;;;;5.70;5.13;;;;;;;;;;5028045;28;20918;-71
2021/08/16 11:52:04;;;;;;;6.53;5.87;;;;;;;;;;5026172;28;20877;-71
2021/08/16 11:54:31;;;;;;;8.43;5.10;;;;;;;;;;5036750;28;20455;-71
2021/08/16 11:56:59;;;;;;;7.73;5.27;;;;;;;;;;5035016;28;20465;-72
2021/08/16 11:59:25;;;;;;;6.70;6.00;;;;;;;;;;5033975;28;20455;-71
2021/08/16 12:01:52;;;;;;;6.80;5.10;;;;;;;;;;5033313;28;20485;-72
2021/08/16 12:04:20;;;;;;;9.10;5.23;;;;;;;;;;5033231;28;20444;-72
2021/08/16 12:06:48;;;;;;;10.97;5.63;;;;;;;;;;5032976;28;20439;-71
2021/08/16 12:09:14;;;;;;;7.40;5.43;;;;;;;;;;5033266;28;20833;-71
2021/08/16 12:11:40;;;;;;;8.30;5.63;;;;;;;;;;5033033;28;20426;-71
2021/08/16 12:14:06;;;;;;;6.40;5.07;;;;;;;;;;5033152;28;20421;-71
2021/08/16 12:16:36;;;;;;;6.73;5.00;;;;;;;;;;5032641;28;20473;-71
2021/08/16 12:19:02;;;;;;;7.00;5.40;;;;;;;;;;5033062;28;20907;-71
2021/08/16 12:21:29;;;;;;;7.80;5.33;;;;;;;;;;5032852;28;20437;-71
2021/08/16 12:23:56;;;;;;;6.10;4.70;;;;;;;;;;5028534;28;21424;-70
2021/08/16 12:26:29;;;;;;;6.67;4.83;;;;;;;;;;5028867;28;20451;-71
2021/08/16 12:28:55;;;;;;;8.53;4.83;;;;;;;;;;5025537;28;20989;-70
2021/08/16 12:31:27;;;;;;;7.00;5.00;;;;;;;;;;5032516;28;20430;-70
2021/08/16 12:34:04;;;;;;;6.17;4.30;;;;;;;;;;5032689;28;20501;-70
2021/08/16 12:36:37;;;;;;;5.90;4.73;;;;;;;;;;5022262;28;20978;-70
2021/08/16 12:39:04;;;;;;;5.47;3.93;;;;;;;;;;5031329;28;20461;-70
2021/08/16 12:41:32;;;;;;;10.77;5.37;;;;;;;;;;5025551;28;20492;-70
2021/08/16 12:43:59;;;;;;;22.00;5.60;;;;;;;;;;5031751;28;20911;-71
2021/08/16 12:46:32;;;;;;;6.73;4.57;;;;;;;;;;5031980;28;20413;-70
2021/08/16 12:48:58;;;;;;;4.97;4.10;;;;;;;;;;5030110;28;20433;-70
2021/08/16 12:51:25;;;;;;;7.10;4.83;;;;;;;;;;5033194;28;20417;-71
2021/08/16 12:53:51;;;;;;;5.63;4.10;;;;;;;;;;5032438;28;20926;-70
2021/08/16 12:56:18;;;;;;;5.37;4.30;;;;;;;;;;5030990;28;20476;-71
2021/08/16 12:58:44;;;;;;;8.60;5.03;;;;;;;;;;5033953;28;20422;-71
2021/08/16 13:01:17;;;;;;;5.67;4.47;;;;;;;;;;5026462;28;20428;-71
2021/08/16 13:03:43;;;;;;;6.03;5.30;;;;;;;;;;5032445;28;20423;-70
2021/08/16 13:06:09;;;;;;;6.57;5.23;;;;;;;;;;5030626;28;20464;-71
2021/08/16 13:08:35;;;;;;;9.60;5.33;;;;;;;;;;5026323;28;20434;-70
2021/08/16 13:11:02;;;;;;;6.50;3.30;;;;;;;;;;5031477;28;21286;-71
2021/08/16 13:13:28;;;;;;;6.90;3.47;;;;;;;;;;5030883;28;20440;-70
2021/08/16 13:15:54;;;;;;;7.93;3.40;;;;;;;;;;5029788;28;20886;-71
2021/08/16 13:18:20;;;;;;;5.27;3.17;;;;;;;;;;5024762;28;20516;-70
2021/08/16 13:20:48;;;;;;;11.03;4.00;;;;;;;;;;5032082;28;20497;-70
2021/08/16 13:23:14;;;;;;;8.53;3.30;;;;;;;;;;5026494;28;20426;-71
2021/08/16 13:25:40;;;;;;;7.20;3.77;;;;;;;;;;5038837;28;20945;-70
2021/08/16 13:28:06;;;;;;;6.93;2.90;;;;;;;;;;5031911;28;20561;-71
2021/08/16 13:30:32;;;;;;;6.53;2.97;;;;;;;;;;5031673;28;20433;-71
2021/08/16 13:32:58;;;;;;;6.30;3.40;;;;;;;;;;5032067;28;20436;-71
2021/08/16 13:35:24;;;;;;;4.70;3.00;;;;;;;;;;5050215;28;20534;-71
2021/08/16 13:37:50;;;;;;;8.40;3.00;;;;;;;;;;5021681;28;20418;-71
2021/08/16 13:40:16;;;;;;;9.10;3.23;;;;;;;;;;5027680;28;20447;-71
2021/08/16 13:42:42;;;;;;;7.57;3.43;;;;;;;;;;5031721;28;20422;-71
2021/08/16 13:45:09;;;;;;;10.43;3.13;;;;;;;;;;5026459;28;20447;-70
2021/08/16 13:47:35;;;;;;;6.07;3.00;;;;;;;;;;5049961;28;20423;-70
2021/08/16 13:50:01;;;;;;;7.23;3.40;;;;;;;;;;5030908;28;20423;-71
2021/08/16 13:52:27;;;;;;;10.23;3.63;;;;;;;;;;5031211;28;20458;-71
2021/08/16 13:54:53;;;;;;;7.33;3.07;;;;;;;;;;5030556;28;20885;-71
2021/08/16 13:57:19;;;;;;;17.17;4.67;;;;;;;;;;5043083;28;20854;-71
2021/08/16 13:59:45;;;;;;;4.97;3.27;;;;;;;;;;5027547;28;20486;-72
2021/08/16 14:02:11;;;;;;;11.00;3.70;;;;;;;;;;5051058;28;20449;-72
2021/08/16 14:04:37;;;;;;;6.30;3.20;;;;;;;;;;5031092;28;20485;-72
2021/08/16 14:07:03;;;;;;;6.40;3.37;;;;;;;;;;5050669;28;20518;-72
2021/08/16 14:09:29;;;;;;;7.70;3.20;;;;;;;;;;5034750;28;20438;-72
2021/08/16 14:11:55;;;;;;;8.10;2.90;;;;;;;;;;5050993;28;21047;-72
2021/08/16 14:14:21;;;;;;;10.97;3.03;;;;;;;;;;5034068;28;20452;-72
2021/08/16 14:16:47;;;;;;;22.33;12.60;;;;;;;;;;5018313;28;21104;-72
2021/08/16 14:19:13;;;;;;;13.00;3.60;;;;;;;;;;5024377;28;20443;-72
2021/08/16 14:21:39;;;;;;;6.83;3.17;;;;;;;;;;5030638;28;20433;-72
2021/08/16 14:24:06;;;;;;;5.97;2.90;;;;;;;;;;5030044;28;20437;-72
2021/08/16 14:26:32;;;;;;;8.70;3.10;;;;;;;;;;5029288;28;20467;-72
2021/08/16 14:29:01;;;;;;;8.23;3.40;;;;;;;;;;5030342;28;20422;-71
2021/08/16 14:31:30;;;;;;;7.50;2.87;;;;;;;;;;5030395;28;20470;-71
2021/08/16 14:33:56;;;;;;;7.70;3.47;;;;;;;;;;5031064;28;20497;-71